createdAt,value
2022-09-04T00:00:07.854Z,81.10
2022-09-04T00:02:55.404Z,81.10
2022-09-04T00:05:28.530Z,81.00
2022-09-04T00:08:06.046Z,80.90
2022-09-04T00:10:42.097Z,80.90
2022-09-04T00:13:17.511Z,81.10
2022-09-04T00:15:51.806Z,81.10
2022-09-04T00:18:27.497Z,81.00
2022-09-04T00:21:01.629Z,81.00
2022-09-04T00:23:38.415Z,81.10
2022-09-04T00:26:15.703Z,81.10
2022-09-04T00:28:54.488Z,81.10
2022-09-04T00:31:37.774Z,81.20
2022-09-04T00:34:15.567Z,81.40
2022-09-04T00:36:50.239Z,81.30
2022-09-04T00:39:23.868Z,81.20
2022-09-04T00:42:02.304Z,81.00
2022-09-04T00:44:48.398Z,81.00
2022-09-04T00:47:51.465Z,81.00
2022-09-04T00:50:34.002Z,80.80
2022-09-04T00:53:28.761Z,81.20
2022-09-04T00:56:27.034Z,81.40
2022-09-04T00:59:10.464Z,81.40
2022-09-04T01:01:40.092Z,81.40
2022-09-04T01:04:36.238Z,81.30
2022-09-04T01:07:32.009Z,81.30
2022-09-04T01:10:19.058Z,81.40
2022-09-04T01:12:55.847Z,81.70
2022-09-04T01:15:30.933Z,81.50
2022-09-04T01:18:10.244Z,81.60
2022-09-04T01:20:54.052Z,81.70
2022-09-04T01:23:45.310Z,81.90
2022-09-04T01:26:23.826Z,82.20
2022-09-04T01:29:22.604Z,82.20
2022-09-04T01:31:56.842Z,82.30
2022-09-04T01:34:39.308Z,82.20
2022-09-04T01:37:21.197Z,82.30
2022-09-04T01:40:13.416Z,82.60
2022-09-04T01:42:50.664Z,82.40
2022-09-04T01:45:30.200Z,83.00
2022-09-04T01:48:03.033Z,82.40
2022-09-04T01:50:33.486Z,82.50
2022-09-04T01:53:10.164Z,82.30
2022-09-04T01:55:45.789Z,82.40
2022-09-04T01:58:23.909Z,82.10
2022-09-04T02:01:01.405Z,82.30
2022-09-04T02:03:40.400Z,82.20
2022-09-04T02:06:17.616Z,82.30
2022-09-04T02:09:01.486Z,82.30
2022-09-04T02:11:32.112Z,82.50
2022-09-04T02:14:17.822Z,82.50
2022-09-04T02:16:56.351Z,82.50
2022-09-04T02:19:37.474Z,82.40
2022-09-04T02:22:14.687Z,82.60
2022-09-04T02:24:49.875Z,82.90
2022-09-04T02:27:26.481Z,83.00
2022-09-04T02:30:02.715Z,82.80
2022-09-04T02:32:37.888Z,82.80
2022-09-04T02:35:14.509Z,83.10
2022-09-04T02:37:52.078Z,83.10
2022-09-04T02:40:27.762Z,83.10
2022-09-04T02:43:07.194Z,83.10
2022-09-04T02:45:43.267Z,83.20
2022-09-04T02:48:16.819Z,83.10
2022-09-04T02:51:07.127Z,83.40
2022-09-04T02:53:43.377Z,83.70
2022-09-04T02:56:25.219Z,83.50
2022-09-04T02:59:11.568Z,83.70
2022-09-04T03:01:51.205Z,84.00
2022-09-04T03:04:25.480Z,83.90
2022-09-04T03:06:58.832Z,83.90
2022-09-04T03:09:32.945Z,84.20
2022-09-04T03:12:05.755Z,84.10
2022-09-04T03:14:39.928Z,84.20
2022-09-04T03:17:18.085Z,84.40
2022-09-04T03:19:52.477Z,84.60
2022-09-04T03:22:27.431Z,84.70
2022-09-04T03:25:10.651Z,85.00
2022-09-04T03:27:39.309Z,84.80
2022-09-04T03:30:09.488Z,84.90
2022-09-04T03:32:48.349Z,85.20
2022-09-04T03:35:23.584Z,85.10
2022-09-04T03:38:07.117Z,85.20
2022-09-04T03:40:39.251Z,85.40
2022-09-04T03:43:40.656Z,85.60
2022-09-04T03:46:21.290Z,85.40
2022-09-04T03:49:05.591Z,85.30
2022-09-04T03:51:44.394Z,85.30
2022-09-04T03:54:25.977Z,85.30
2022-09-04T03:57:28.921Z,85.40
2022-09-04T04:00:07.079Z,85.60
2022-09-04T04:03:00.831Z,85.60
2022-09-04T04:05:41.978Z,85.60
2022-09-04T04:08:28.423Z,85.70
2022-09-04T04:11:03.221Z,85.80
2022-09-04T04:13:48.274Z,86.00
2022-09-04T04:16:43.043Z,85.90
2022-09-04T04:19:30.940Z,86.10
2022-09-04T04:22:20.751Z,86.10
2022-09-04T04:25:02.195Z,86.20
2022-09-04T04:27:44.321Z,86.20
2022-09-04T04:30:15.551Z,86.10
2022-09-04T04:33:01.202Z,86.30
2022-09-04T04:35:36.384Z,86.50
2022-09-04T04:38:19.337Z,86.70
2022-09-04T04:41:16.401Z,86.70
2022-09-04T04:43:57.595Z,86.70
2022-09-04T04:46:36.875Z,86.80
2022-09-04T04:49:23.744Z,86.90
2022-09-04T04:52:03.994Z,87.00
2022-09-04T04:54:47.214Z,87.10
2022-09-04T04:57:28.260Z,87.40
2022-09-04T05:00:07.753Z,87.60
2022-09-04T05:02:43.285Z,87.50
2022-09-04T05:05:18.414Z,87.60
2022-09-04T05:07:54.315Z,87.60
2022-09-04T05:10:31.690Z,87.60
2022-09-04T05:13:11.197Z,87.80
2022-09-04T05:16:07.548Z,87.90
2022-09-04T05:18:36.445Z,88.30
2022-09-04T05:21:11.599Z,88.70
2022-09-04T05:23:47.688Z,89.20
2022-09-04T05:26:28.138Z,89.50
2022-09-04T05:29:02.341Z,89.70
2022-09-04T05:31:38.792Z,90.00
2022-09-04T05:34:17.607Z,90.10
2022-09-04T05:36:58.884Z,90.10
2022-09-04T05:39:31.787Z,90.20
2022-09-04T05:42:19.653Z,90.20
2022-09-04T05:44:59.712Z,90.70
2022-09-04T05:47:43.139Z,90.60
2022-09-04T05:50:37.978Z,90.70
2022-09-04T05:53:40.912Z,90.80
2022-09-04T05:56:36.322Z,90.80
2022-09-04T05:59:27.723Z,90.70
2022-09-04T06:02:13.866Z,90.70
2022-09-04T06:05:21.155Z,90.60
2022-09-04T06:08:01.372Z,90.60
2022-09-04T06:10:42.111Z,90.70
2022-09-04T06:13:53.157Z,90.60
2022-09-04T06:16:47.343Z,90.60
2022-09-04T06:19:38.543Z,90.80
2022-09-04T06:22:37.058Z,90.70
2022-09-04T06:25:32.477Z,90.80
2022-09-04T06:28:38.069Z,90.90
2022-09-04T06:31:28.875Z,90.90
2022-09-04T06:34:07.360Z,90.90
2022-09-04T06:36:56.549Z,91.00
2022-09-04T06:39:41.413Z,91.10
2022-09-04T06:42:22.940Z,91.10
2022-09-04T06:45:19.267Z,91.10
2022-09-04T06:48:01.600Z,91.00
2022-09-04T06:50:41.374Z,91.10
2022-09-04T06:53:19.203Z,91.10
2022-09-04T06:55:58.222Z,91.10
2022-09-04T06:58:48.982Z,91.20
2022-09-04T07:01:26.225Z,91.20
2022-09-04T07:04:12.531Z,91.10
2022-09-04T07:06:57.706Z,91.10
2022-09-04T07:09:30.243Z,91.20
2022-09-04T07:12:33.514Z,91.10
2022-09-04T07:15:28.560Z,91.10
2022-09-04T07:18:07.214Z,91.10
2022-09-04T07:20:40.414Z,91.10
2022-09-04T07:23:27.590Z,91.00
2022-09-04T07:26:07.389Z,91.00
2022-09-04T07:29:16.732Z,91.00
2022-09-04T07:31:53.586Z,91.00
2022-09-04T07:34:26.891Z,91.00
2022-09-04T07:37:01.432Z,91.10
2022-09-04T07:39:37.089Z,91.20
2022-09-04T07:42:12.499Z,91.20
2022-09-04T07:44:48.910Z,91.20
2022-09-04T07:47:22.864Z,91.20
2022-09-04T07:49:59.011Z,91.20
2022-09-04T07:52:42.898Z,91.20
2022-09-04T07:55:24.215Z,91.20
2022-09-04T07:58:28.856Z,91.30
2022-09-04T08:01:10.144Z,91.30
2022-09-04T08:04:04.830Z,91.40
2022-09-04T08:06:44.725Z,91.40
2022-09-04T08:09:33.540Z,91.40
2022-09-04T08:12:48.783Z,91.50
2022-09-04T08:15:21.962Z,91.50
2022-09-04T08:18:16.438Z,91.60
2022-09-04T08:20:49.548Z,91.60
2022-09-04T08:23:36.859Z,91.60
2022-09-04T08:26:14.506Z,91.70
2022-09-04T08:28:58.566Z,91.70
2022-09-04T08:31:32.004Z,91.60
2022-09-04T08:34:30.643Z,91.60
2022-09-04T08:37:08.427Z,91.50
2022-09-04T08:39:46.983Z,91.50
2022-09-04T08:42:45.583Z,91.40
2022-09-04T08:45:42.452Z,91.40
2022-09-04T08:49:00.090Z,91.50
2022-09-04T08:52:08.834Z,91.40
2022-09-04T08:55:07.964Z,91.50
2022-09-04T08:58:02.701Z,91.40
2022-09-04T09:00:45.269Z,91.40
2022-09-04T09:03:55.267Z,91.40
2022-09-04T09:07:02.107Z,91.50
2022-09-04T09:10:09.414Z,91.40
2022-09-04T09:13:16.437Z,91.40
2022-09-04T09:16:12.319Z,91.40
2022-09-04T09:19:09.385Z,91.40
2022-09-04T09:21:44.816Z,91.40
2022-09-04T09:24:38.681Z,91.40
2022-09-04T09:27:30.558Z,91.30
2022-09-04T09:30:09.954Z,91.20
2022-09-04T09:33:14.904Z,91.20
2022-09-04T09:36:04.750Z,91.10
2022-09-04T09:38:49.650Z,91.10
2022-09-04T09:41:46.434Z,91.10
2022-09-04T09:44:42.789Z,91.10
2022-09-04T09:48:02.925Z,91.00
2022-09-04T09:51:00.211Z,91.00
2022-09-04T09:54:00.812Z,91.00
2022-09-04T09:57:13.629Z,91.00
2022-09-04T10:00:07.737Z,91.30
2022-09-04T10:03:15.912Z,90.90
2022-09-04T10:06:32.353Z,90.90
2022-09-04T10:09:45.228Z,90.90
2022-09-04T10:13:04.614Z,91.20
2022-09-04T10:16:01.579Z,90.90
2022-09-04T10:19:12.443Z,91.00
2022-09-04T10:22:21.721Z,90.90
2022-09-04T10:25:31.080Z,91.00
2022-09-04T10:28:29.110Z,90.90
2022-09-04T10:31:32.696Z,90.90
2022-09-04T10:34:13.116Z,90.80
2022-09-04T10:36:52.557Z,90.80
2022-09-04T10:39:48.063Z,90.80
2022-09-04T10:42:31.738Z,90.70
2022-09-04T10:45:17.227Z,90.70
2022-09-04T10:48:09.643Z,90.70
2022-09-04T10:51:01.872Z,90.70
2022-09-04T10:53:51.232Z,90.60
2022-09-04T10:56:26.682Z,90.60
2022-09-04T10:59:32.084Z,90.50
2022-09-04T11:02:41.016Z,90.50
2022-09-04T11:05:29.320Z,90.40
2022-09-04T11:08:21.229Z,90.40
2022-09-04T11:11:23.047Z,90.30
2022-09-04T11:14:18.659Z,90.30
2022-09-04T11:17:15.411Z,90.30
2022-09-04T11:20:20.954Z,90.20
2022-09-04T11:23:33.443Z,90.10
2022-09-04T11:26:36.288Z,90.20
2022-09-04T11:29:17.377Z,90.10
2022-09-04T11:32:03.856Z,90.10
2022-09-04T11:35:09.826Z,90.10
2022-09-04T11:38:14.951Z,90.00
2022-09-04T11:41:11.172Z,90.00
2022-09-04T11:44:11.235Z,89.90
2022-09-04T11:47:19.365Z,89.80
2022-09-04T11:50:16.445Z,89.60
2022-09-04T11:53:10.191Z,90.10
2022-09-04T11:55:55.645Z,89.60
2022-09-04T11:58:49.429Z,89.60
2022-09-04T12:01:34.440Z,89.50
2022-09-04T12:04:35.756Z,89.20
2022-09-04T12:07:26.492Z,89.10
2022-09-04T12:10:29.760Z,89.10
2022-09-04T12:13:31.265Z,89.00
2022-09-04T12:16:18.161Z,88.90
2022-09-04T12:19:16.102Z,88.40
2022-09-04T12:22:26.082Z,88.50
2022-09-04T12:25:23.610Z,88.40
2022-09-04T12:28:15.862Z,88.40
2022-09-04T12:31:00.248Z,88.40
2022-09-04T12:33:52.934Z,88.00
2022-09-04T12:36:53.229Z,88.00
2022-09-04T12:39:59.587Z,88.10
2022-09-04T12:42:33.251Z,87.70
2022-09-04T12:45:10.879Z,87.50
2022-09-04T12:47:55.505Z,87.30
2022-09-04T12:50:35.420Z,87.40
2022-09-04T12:53:26.123Z,86.90
2022-09-04T12:56:05.710Z,87.00
2022-09-04T12:58:52.289Z,86.40
2022-09-04T13:01:32.233Z,86.50
2022-09-04T13:04:11.494Z,86.00
2022-09-04T13:06:53.488Z,86.00
2022-09-04T13:09:33.493Z,86.20
2022-09-04T13:12:15.644Z,85.60
2022-09-04T13:15:03.271Z,86.00
2022-09-04T13:17:43.405Z,85.90
2022-09-04T13:20:22.666Z,85.80
2022-09-04T13:23:04.381Z,85.50
2022-09-04T13:25:48.451Z,85.40
2022-09-04T13:28:25.182Z,85.40
2022-09-04T13:31:00.037Z,85.10
2022-09-04T13:33:41.787Z,85.20
2022-09-04T13:36:32.180Z,85.10
2022-09-04T13:39:22.819Z,84.90
2022-09-04T13:42:16.171Z,84.80
2022-09-04T13:45:05.670Z,84.90
2022-09-04T13:47:42.565Z,84.70
2022-09-04T13:50:20.721Z,85.10
2022-09-04T13:52:57.971Z,84.90
2022-09-04T13:55:30.526Z,84.50
2022-09-04T13:58:05.757Z,84.20
2022-09-04T14:00:37.700Z,83.90
2022-09-04T14:03:11.741Z,83.90
2022-09-04T14:05:40.461Z,84.40
2022-09-04T14:08:16.073Z,84.20
2022-09-04T14:11:14.295Z,84.20
2022-09-04T14:14:01.994Z,84.20
2022-09-04T14:16:33.876Z,83.70
2022-09-04T14:19:21.105Z,83.70
2022-09-04T14:22:18.604Z,83.70
2022-09-04T14:24:56.228Z,83.20
2022-09-04T14:27:32.850Z,83.50
2022-09-04T14:30:07.094Z,83.10
2022-09-04T14:33:19.395Z,83.00
2022-09-04T14:36:02.762Z,82.60
2022-09-04T14:38:56.929Z,82.80
2022-09-04T14:41:37.063Z,82.30
2022-09-04T14:44:21.761Z,82.40
2022-09-04T14:46:59.251Z,82.40
2022-09-04T14:49:31.642Z,82.10
2022-09-04T14:52:03.526Z,82.00
2022-09-04T14:54:35.960Z,81.80
2022-09-04T14:57:17.683Z,82.00
2022-09-04T14:59:51.888Z,82.00
2022-09-04T15:02:29.183Z,81.40
2022-09-04T15:05:04.375Z,81.00
2022-09-04T15:08:03.582Z,80.80
2022-09-04T15:10:37.096Z,81.00
2022-09-04T15:13:33.561Z,80.40
2022-09-04T15:16:15.848Z,80.10
2022-09-04T15:18:53.488Z,80.10
2022-09-04T15:21:33.969Z,80.60
2022-09-04T15:24:14.894Z,80.20
2022-09-04T15:26:47.002Z,79.80
2022-09-04T15:29:19.671Z,79.50
2022-09-04T15:31:48.390Z,79.70
2022-09-04T15:34:22.748Z,79.40
2022-09-04T15:36:52.482Z,78.70
2022-09-04T15:39:37.476Z,78.80
2022-09-04T15:42:12.299Z,79.20
2022-09-04T15:44:44.238Z,79.00
2022-09-04T15:47:19.120Z,78.70
2022-09-04T15:49:51.952Z,78.20
2022-09-04T15:52:30.514Z,77.90
2022-09-04T15:55:06.201Z,78.00
2022-09-04T15:57:49.648Z,77.90
2022-09-04T16:00:23.329Z,77.70
2022-09-04T16:02:59.345Z,78.00
2022-09-04T16:05:35.113Z,78.10
2022-09-04T16:08:20.459Z,77.80
2022-09-04T16:10:57.429Z,78.20
2022-09-04T16:13:46.731Z,78.50
2022-09-04T16:16:22.051Z,78.20
2022-09-04T16:19:09.149Z,77.90
2022-09-04T16:21:45.051Z,77.80
2022-09-04T16:24:17.521Z,77.60
2022-09-04T16:26:51.397Z,77.90
2022-09-04T16:29:36.562Z,77.50
2022-09-04T16:32:09.679Z,77.30
2022-09-04T16:34:47.264Z,77.10
2022-09-04T16:37:21.224Z,77.40
2022-09-04T16:40:04.247Z,77.20
2022-09-04T16:42:39.943Z,77.30
2022-09-04T16:45:17.465Z,77.10
2022-09-04T16:47:50.651Z,77.10
2022-09-04T16:50:25.342Z,77.20
2022-09-04T16:53:13.084Z,77.30
2022-09-04T16:55:58.002Z,77.10
2022-09-04T16:58:40.123Z,77.30
2022-09-04T17:01:16.147Z,77.20
2022-09-04T17:04:13.512Z,77.50
2022-09-04T17:06:56.360Z,77.40
2022-09-04T17:09:29.402Z,77.20
2022-09-04T17:12:07.275Z,77.10
2022-09-04T17:14:39.701Z,76.90
2022-09-04T17:17:30.247Z,76.70
2022-09-04T17:20:06.403Z,76.70
2022-09-04T17:28:57.471Z,76.40
2022-09-04T17:29:12.645Z,76.30
2022-09-04T17:29:15.038Z,76.30
2022-09-04T17:31:45.892Z,76.30
2022-09-04T17:40:33.803Z,76.40
2022-09-04T17:40:34.729Z,76.50
2022-09-04T17:40:50.298Z,76.40
2022-09-04T17:43:22.750Z,76.30
2022-09-04T17:46:02.249Z,76.40
2022-09-04T17:48:33.446Z,76.50
2022-09-04T17:51:03.946Z,76.70
2022-09-04T17:53:35.419Z,76.80
2022-09-04T17:56:09.234Z,76.90
2022-09-04T17:58:43.659Z,77.00
2022-09-04T18:01:19.621Z,77.10
2022-09-04T18:04:20.877Z,77.20
2022-09-04T18:06:58.071Z,77.30
2022-09-04T18:09:33.030Z,77.50
2022-09-04T18:12:10.203Z,77.60
2022-09-04T18:14:43.412Z,77.70
2022-09-04T18:17:19.930Z,77.90
2022-09-04T18:19:49.755Z,78.00
2022-09-04T18:22:33.699Z,77.90
2022-09-04T18:25:17.331Z,78.10
2022-09-04T18:28:11.501Z,78.20
2022-09-04T18:37:06.870Z,78.30
2022-09-04T18:37:10.821Z,78.50
2022-09-04T18:37:15.975Z,78.70
2022-09-04T18:39:59.538Z,78.80
2022-09-04T18:46:05.169Z,78.70
2022-09-04T18:50:22.960Z,78.80
2022-09-04T18:50:51.557Z,78.90
2022-09-04T18:51:21.320Z,78.90
2022-09-04T18:53:53.951Z,78.90
2022-09-04T18:56:26.427Z,78.70
2022-09-04T18:59:08.041Z,78.70
2022-09-04T19:01:43.749Z,78.80
2022-09-04T19:04:44.476Z,78.70
2022-09-04T19:07:27.529Z,79.30
2022-09-04T19:10:21.835Z,78.70
2022-09-04T19:12:58.574Z,78.50
2022-09-04T19:15:45.036Z,78.60
2022-09-04T19:18:22.235Z,78.80
2022-09-04T19:20:54.363Z,78.70
2022-09-04T19:23:33.028Z,78.70
2022-09-04T19:26:08.019Z,78.80
2022-09-04T19:28:52.354Z,78.80
2022-09-04T19:31:32.027Z,78.70
2022-09-04T19:34:08.735Z,78.90
2022-09-04T19:36:43.743Z,79.10
2022-09-04T19:45:55.852Z,78.90
2022-09-04T19:46:18.489Z,79.00
2022-09-04T19:46:18.773Z,78.80
2022-09-04T19:48:27.294Z,79.00
2022-09-04T19:53:30.149Z,79.20
2022-09-04T19:53:54.963Z,79.20
2022-09-04T19:56:35.309Z,79.00
2022-09-04T19:59:28.197Z,79.00
2022-09-04T20:01:58.137Z,79.30
2022-09-04T20:04:38.570Z,79.20
2022-09-04T20:07:17.427Z,79.20
2022-09-04T20:09:49.089Z,79.30
2022-09-04T20:12:24.529Z,79.20
2022-09-04T20:14:56.963Z,79.30
2022-09-04T20:17:47.562Z,79.40
2022-09-04T20:20:21.254Z,79.40
2022-09-04T20:22:53.897Z,79.50
2022-09-04T20:25:35.699Z,79.60
2022-09-04T20:28:22.959Z,79.60
2022-09-04T20:31:28.435Z,79.70
2022-09-04T20:33:59.113Z,79.80
2022-09-04T20:36:33.618Z,79.80
2022-09-04T20:39:08.316Z,79.90
2022-09-04T20:41:48.195Z,79.90
2022-09-04T20:44:25.217Z,80.00
2022-09-04T20:52:42.060Z,80.20
2022-09-04T20:52:50.302Z,80.20
2022-09-04T20:53:11.094Z,80.20
2022-09-04T20:55:46.254Z,80.20
2022-09-04T21:03:08.847Z,80.30
2022-09-04T21:03:11.658Z,80.50
2022-09-04T21:04:43.231Z,80.50
2022-09-04T21:07:23.623Z,80.40
2022-09-04T21:10:00.599Z,80.70
2022-09-04T21:12:36.337Z,80.60
2022-09-04T21:15:11.481Z,80.70
2022-09-04T21:18:04.409Z,80.80
2022-09-04T21:20:55.086Z,80.70
2022-09-04T21:24:02.754Z,81.00
2022-09-04T21:26:49.429Z,81.10
2022-09-04T21:29:49.746Z,81.20
2022-09-04T21:32:31.342Z,81.30
2022-09-04T21:35:11.280Z,81.40
2022-09-04T21:37:47.640Z,81.40
2022-09-04T21:40:51.091Z,81.60
2022-09-04T21:43:52.915Z,81.70
2022-09-04T21:46:34.119Z,81.60
2022-09-04T21:49:51.697Z,81.70
2022-09-04T21:52:45.932Z,81.80
2022-09-04T21:57:00.068Z,82.00
2022-09-04T22:02:39.897Z,82.20
2022-09-04T22:02:47.266Z,82.10
2022-09-04T22:05:01.089Z,82.20
2022-09-04T22:12:33.085Z,82.20
2022-09-04T22:13:42.851Z,82.30
2022-09-04T22:13:50.296Z,82.30
2022-09-04T22:16:44.935Z,82.30
2022-09-04T22:19:29.963Z,82.30
2022-09-04T22:22:16.356Z,82.40
2022-09-04T22:25:07.292Z,82.40
2022-09-04T22:28:21.618Z,82.40
2022-09-04T22:31:13.724Z,82.40
2022-09-04T22:34:15.518Z,82.50
2022-09-04T22:37:21.505Z,82.60
2022-09-04T22:40:05.550Z,82.60
2022-09-04T22:42:41.450Z,82.60
2022-09-04T22:45:39.164Z,82.70
2022-09-04T22:48:36.842Z,82.80
2022-09-04T22:51:15.835Z,82.80
2022-09-04T22:54:07.336Z,82.90
2022-09-04T22:56:52.973Z,82.90
2022-09-04T22:59:40.619Z,82.90
2022-09-04T23:02:40.703Z,83.00
2022-09-04T23:05:31.038Z,82.90
2022-09-04T23:13:47.607Z,82.90
2022-09-04T23:13:54.153Z,83.00
2022-09-04T23:14:29.363Z,82.90
2022-09-04T23:17:15.564Z,82.90
2022-09-04T23:26:35.390Z,83.00
2022-09-04T23:26:49.802Z,83.10
2022-09-04T23:26:53.814Z,83.00
2022-09-04T23:29:56.292Z,83.00
2022-09-04T23:32:54.963Z,83.00
2022-09-04T23:35:35.531Z,83.20
2022-09-04T23:38:40.922Z,83.20
2022-09-04T23:41:21.718Z,83.20
2022-09-04T23:44:25.492Z,83.40
2022-09-04T23:47:47.986Z,83.10
2022-09-04T23:50:25.906Z,83.20
2022-09-04T23:53:05.919Z,83.10
2022-09-04T23:55:50.457Z,83.10
2022-09-04T23:58:56.308Z,83.10
